.
WxDataArchive / Data Records for 2010-11-12
2010-11-11 November 2010 2010-11-13

Data Records for Friday, 12 November 2010

Time	Temp	Chill	HIndex	Humid	Dewpt	 Wind 	HiWind	WindDir	Rain 	Barom 
-----	----	-----	------	-----	-----	------	------	-------	-----	----- 
00:00	42.2	42.2	42.2	84	37.7	0	0	---	0.00	30.392 
00:05	42.1	42.1	42.1	85	37.9	0	0	---	0.00	30.392 
00:10	41.9	41.9	41.9	85	37.7	0	0	---	0.00	30.392 
00:15	41.9	41.9	41.9	86	38.0	0	0	---	0.00	30.385 
00:20	41.9	41.9	41.9	86	38.0	0	0	---	0.00	30.385 
00:25	41.8	41.8	41.8	86	37.9	0	0	---	0.00	30.385 
00:30	41.8	41.8	41.8	87	38.2	0	0	---	0.00	30.386 
00:35	41.6	41.6	41.6	87	38.0	0	0	---	0.00	30.386 
00:40	41.6	41.6	41.6	87	38.0	0	0	---	0.00	30.386 
00:45	41.5	41.5	41.5	87	37.9	0	0	---	0.00	30.385 
00:50	41.5	41.5	41.5	87	37.9	0	0	---	0.00	30.385 
00:55	41.3	41.3	41.3	88	38.0	0	0	---	0.00	30.385 
01:00	41.2	41.2	41.2	88	37.9	0	0	---	0.00	30.387 
01:05	41.2	41.2	41.2	88	37.9	0	0	---	0.00	30.387 
01:10	41.2	41.2	41.2	88	37.9	0	0	---	0.00	30.387 
01:15	41.1	41.1	41.1	88	37.8	0	0	---	0.00	30.379 
01:20	41.1	41.1	41.1	88	37.8	0	0	---	0.00	30.379 
01:25	41.1	41.1	41.1	88	37.8	0	0	---	0.00	30.379 
01:30	41.1	41.1	41.1	88	37.8	0	0	---	0.00	30.378 
01:35	40.9	40.9	40.9	88	37.6	0	0	---	0.00	30.378 
01:40	40.9	40.9	40.9	88	37.6	0	0	---	0.00	30.378 
01:45	40.9	40.9	40.9	88	37.6	0	0	---	0.00	30.376 
01:50	40.9	40.9	40.9	88	37.6	0	0	---	0.00	30.376 
01:55	41.3	41.3	41.3	88	38.0	0	0	---	0.00	30.376 
02:00	41.5	41.5	41.5	87	37.9	0	0	---	0.00	30.378 
02:05	41.5	41.5	41.5	86	37.6	0	0	---	0.00	30.378 
02:10	41.5	41.5	41.5	86	37.6	0	0	---	0.00	30.378 
02:15	41.5	41.5	41.5	86	37.6	0	0	---	0.00	30.372 
02:20	41.5	41.5	41.5	86	37.6	0	0	---	0.00	30.372 
02:25	41.3	41.3	41.3	85	37.1	0	0	---	0.00	30.372 
02:30	41.2	41.2	41.2	85	37.0	0	0	---	0.00	30.374 
02:35	41.1	41.1	41.1	85	36.9	0	0	---	0.00	30.374 
02:40	41.1	41.1	41.1	86	37.2	0	0	---	0.00	30.374 
02:45	40.9	40.9	40.9	85	36.7	0	0	---	0.00	30.378 
02:50	40.8	40.8	40.8	86	36.9	0	0	---	0.00	30.378 
02:55	40.6	40.6	40.6	86	36.7	0	0	---	0.00	30.378 
03:00	40.5	40.5	40.5	86	36.6	0	0	---	0.00	30.377 
03:05	40.3	40.3	40.3	86	36.5	0	0	---	0.00	30.377 
03:10	40.2	40.2	40.2	86	36.4	0	0	---	0.00	30.377 
03:15	40.1	40.1	40.1	86	36.3	0	0	---	0.00	30.371 
03:20	39.9	39.9	39.9	87	36.4	0	0	---	0.00	30.371 
03:25	39.8	39.8	39.8	87	36.3	0	0	---	0.00	30.371 
03:30	39.6	39.6	39.6	87	36.1	0	0	---	0.00	30.368 
03:35	39.5	39.5	39.5	87	36.0	0	0	---	0.00	30.368 
03:40	39.3	39.3	39.3	88	36.0	0	0	---	0.00	30.368 
03:45	39.3	39.3	39.3	88	36.0	0	0	---	0.00	30.367 
03:50	39.2	39.2	39.2	88	35.9	0	0	---	0.00	30.367 
03:55	39.1	39.1	39.1	88	35.9	0	0	---	0.00	30.367 
04:00	38.9	38.9	38.9	88	35.7	0	0	---	0.00	30.365 
04:05	38.9	38.9	38.9	88	35.7	0	0	---	0.00	30.365 
04:10	38.9	38.9	38.9	88	35.7	0	0	---	0.00	30.365 
04:15	38.9	38.9	38.9	89	35.9	0	0	---	0.00	30.368 
04:20	38.8	38.8	38.8	89	35.8	0	0	---	0.00	30.368 
04:25	38.8	38.8	38.8	89	35.8	0	0	---	0.00	30.368 
04:30	38.6	38.6	38.6	89	35.6	0	0	---	0.00	30.368 
04:35	38.5	38.5	38.5	89	35.5	0	0	---	0.00	30.368 
04:40	38.5	38.5	38.5	89	35.5	0	0	---	0.00	30.368 
04:45	38.3	38.3	38.3	89	35.3	0	0	---	0.00	30.367 
04:50	38.2	38.2	38.2	89	35.2	0	0	---	0.00	30.367 
04:55	38.2	38.2	38.2	90	35.5	0	0	---	0.00	30.367 
05:00	38.2	38.2	38.2	90	35.5	0	0	---	0.00	30.366 
05:05	38.2	38.2	38.2	90	35.5	0	0	---	0.00	30.366 
05:10	38.2	38.2	38.2	90	35.5	0	0	---	0.00	30.366 
05:15	38.2	38.2	38.2	90	35.5	0	0	---	0.00	30.374 
05:20	38.3	38.3	38.3	91	35.9	0	0	---	0.00	30.374 
05:25	38.3	38.3	38.3	91	35.9	0	0	---	0.00	30.374 
05:30	38.5	38.5	38.5	91	36.1	0	0	---	0.00	30.378 
05:35	38.3	38.3	38.3	91	35.9	0	0	---	0.00	30.378 
05:40	38.3	38.3	38.3	91	35.9	0	0	---	0.00	30.378 
05:45	38.2	38.2	38.2	91	35.8	0	0	---	0.00	30.381 
05:50	38.0	38.0	38.0	91	35.6	0	0	---	0.00	30.381 
05:55	37.9	37.9	37.9	91	35.5	0	0	---	0.00	30.381 
06:00	37.8	37.8	37.8	90	35.1	0	0	---	0.00	30.380 
06:05	37.6	37.6	37.6	90	34.9	0	0	---	0.00	30.380 
06:10	37.5	37.5	37.5	91	35.1	0	0	---	0.00	30.380 
06:15	37.6	37.6	37.6	91	35.2	0	0	---	0.00	30.378 
06:20	37.6	37.6	37.6	91	35.2	0	0	---	0.00	30.378 
06:25	37.5	37.5	37.5	91	35.1	0	0	---	0.00	30.378 
06:30	37.3	37.3	37.3	91	34.9	0	0	---	0.00	30.380 
06:35	37.3	37.3	37.3	91	34.9	0	0	---	0.00	30.380 
06:40	37.3	37.3	37.3	91	34.9	0	0	---	0.00	30.380 
06:45	37.3	37.3	37.3	91	34.9	0	0	---	0.00	30.381 
06:50	37.3	37.3	37.3	91	34.9	0	0	---	0.00	30.381 
06:55	37.2	37.2	37.2	91	34.8	0	0	---	0.00	30.381 
07:00	37.0	37.0	37.0	91	34.6	0	0	---	0.00	30.385 
07:05	37.0	37.0	37.0	92	34.9	0	0	---	0.00	30.385 
07:10	37.0	37.0	37.0	92	34.9	0	0	---	0.00	30.385 
07:15	37.0	37.0	37.0	92	34.9	0	0	---	0.00	30.393 
07:20	37.0	37.0	37.0	92	34.9	0	0	---	0.00	30.393 
07:25	36.9	36.9	36.9	92	34.8	0	0	---	0.00	30.393 
07:30	36.8	36.8	36.8	92	34.7	0	0	---	0.00	30.395 
07:35	36.8	36.8	36.8	92	34.7	0	0	---	0.00	30.395 
07:40	36.8	36.8	36.8	92	34.7	0	0	---	0.00	30.395 
07:45	36.8	36.8	36.8	92	34.7	0	0	---	0.00	30.398 
07:50	36.8	36.8	36.8	92	34.7	0	0	---	0.00	30.398 
07:55	36.9	36.9	36.9	92	34.8	0	0	---	0.00	30.398 
08:00	37.0	37.0	37.0	92	34.9	0	0	---	0.00	30.402 
08:05	37.3	37.3	37.3	92	35.2	0	0	---	0.00	30.402 
08:10	37.6	37.6	37.6	93	35.8	0	0	---	0.00	30.402 
08:15	38.0	38.0	38.0	93	36.2	0	0	---	0.00	30.402 
08:20	38.5	38.5	38.5	93	36.7	0	0	---	0.00	30.402 
08:25	39.2	39.2	39.2	94	37.6	0	0	---	0.00	30.402 
08:30	40.1	40.1	40.1	94	38.5	0	0	---	0.00	30.402 
08:35	41.2	41.2	41.2	94	39.6	0	0	---	0.00	30.402 
08:40	42.1	42.1	42.1	92	39.9	0	2	90	0.00	30.402 
08:45	42.6	42.6	42.6	90	39.9	0	2	90	0.00	30.405 
08:50	43.1	43.1	43.1	88	39.8	0	2	90	0.00	30.405 
08:55	43.5	43.5	43.5	87	39.9	0	2	90	0.00	30.405 
09:00	44.2	44.2	44.2	85	40.0	0	2	90	0.00	30.407 
09:05	44.9	44.9	44.9	83	40.1	0	1	90	0.00	30.407 
09:10	45.7	45.7	45.7	80	39.9	1	3	90	0.00	30.407 
09:15	46.4	46.4	46.4	78	39.9	1	4	90	0.00	30.409 
09:20	47.0	47.0	47.0	74	39.1	1	4	90	0.00	30.409 
09:25	47.6	47.6	47.6	73	39.4	0	3	90	0.00	30.409 
09:30	48.3	48.3	48.3	72	39.7	0	2	90	0.00	30.407 
09:35	48.8	48.8	48.8	72	40.2	0	3	90	0.00	30.407 
09:40	48.8	48.8	48.8	70	39.5	1	2	90	0.00	30.407 
09:45	48.9	48.9	48.9	71	39.9	0	2	90	0.00	30.402 
09:50	49.2	49.2	49.2	70	39.8	0	1	90	0.00	30.402 
09:55	49.5	49.5	49.5	68	39.4	0	2	90	0.00	30.402 
10:00	49.9	49.9	49.9	67	39.4	0	2	90	0.00	30.401 
10:05	50.4	50.4	50.4	66	39.5	0	2	90	0.00	30.401 
10:10	50.7	50.7	50.7	66	39.8	0	0	---	0.00	30.401 
10:15	51.1	51.1	51.1	65	39.7	0	2	90	0.00	30.397 
10:20	51.7	51.7	51.7	63	39.5	0	2	90	0.00	30.397 
10:25	52.3	52.3	52.3	62	39.7	0	2	90	0.00	30.397 
10:30	52.8	52.8	52.8	62	40.1	0	2	90	0.00	30.394 
10:35	53.2	53.2	53.2	59	39.2	0	1	90	0.00	30.394 
10:40	53.8	53.8	53.8	58	39.4	0	2	90	0.00	30.394 
10:45	54.4	54.4	54.4	57	39.5	0	1	90	0.00	30.391 
10:50	54.8	54.8	54.8	55	38.9	0	1	90	0.00	30.391 
10:55	55.6	55.6	55.6	54	39.2	0	2	90	0.00	30.391 
11:00	56.2	56.2	56.2	55	40.2	0	2	90	0.00	30.386 
11:05	56.7	56.7	56.7	54	40.2	0	1	90	0.00	30.386 
11:10	57.6	57.6	57.6	52	40.1	0	2	90	0.00	30.386 
11:15	58.4	58.4	58.4	52	40.8	0	1	90	0.00	30.384 
11:20	58.9	58.9	58.9	49	39.8	0	2	90	0.00	30.384 
11:25	59.2	59.2	59.2	48	39.5	0	2	90	0.00	30.384 
11:30	59.5	59.5	59.5	47	39.3	0	1	90	0.00	30.377 
11:35	60.1	60.1	60.1	47	39.8	0	3	90	0.00	30.377 
11:40	60.5	60.5	60.5	45	39.1	1	2	90	0.00	30.377 
11:45	61.0	61.0	61.0	45	39.5	1	3	90	0.00	30.368 
11:50	61.3	61.3	61.3	44	39.2	1	2	90	0.00	30.368 
11:55	61.8	61.8	61.8	43	39.1	1	2	90	0.00	30.368 
12:00	62.3	62.3	62.3	43	39.5	0	1	90	0.00	30.358 
12:05	62.6	62.6	62.6	42	39.2	0	2	90	0.00	30.358 
12:10	62.9	62.9	62.9	42	39.5	0	2	90	0.00	30.358 
12:15	63.4	63.4	63.4	41	39.3	1	3	90	0.00	30.349 
12:20	63.7	63.7	63.7	39	38.3	1	3	90	0.00	30.349 
12:25	64.0	64.0	64.0	40	39.2	0	3	90	0.00	30.349 
12:30	64.5	64.5	64.5	38	38.3	1	3	90	0.00	30.340 
12:35	64.8	64.8	64.8	37	37.9	0	2	112	0.00	30.340 
12:40	65.2	65.2	65.2	37	38.3	1	3	112	0.00	30.340 
12:45	65.5	65.5	65.5	36	37.8	1	5	90	0.00	30.332 
12:50	65.8	65.8	65.8	35	37.4	1	6	112	0.00	30.332 
12:55	66.1	66.1	66.1	35	37.6	1	5	112	0.00	30.332 
13:00	66.3	66.3	66.3	34	37.1	1	4	112	0.00	30.329 
13:05	66.4	66.4	66.4	33	36.4	1	4	112	0.00	30.329 
13:10	66.6	66.6	66.6	33	36.6	1	3	112	0.00	30.329 
13:15	66.8	66.8	66.8	33	36.8	1	5	90	0.00	30.319 
13:20	66.9	66.9	66.9	32	36.1	2	6	90	0.00	30.319 
13:25	67.3	67.3	67.3	32	36.4	3	6	90	0.00	30.319 
13:30	67.3	67.3	67.3	32	36.4	1	3	90	0.00	30.316 
13:35	67.4	67.4	67.4	33	37.3	1	4	90	0.00	30.316 
13:40	67.8	67.8	67.8	32	36.9	1	5	112	0.00	30.316 
13:45	67.8	67.8	67.8	33	37.6	2	6	112	0.00	30.311 
13:50	67.6	67.6	67.6	33	37.5	1	3	112	0.00	30.311 
13:55	67.8	67.8	67.8	34	38.4	1	5	112	0.00	30.311 
14:00	67.8	67.8	67.8	34	38.4	2	5	112	0.00	30.302 
14:05	67.9	67.9	67.9	33	37.7	1	5	90	0.00	30.302 
14:10	67.9	67.9	67.9	34	38.5	3	7	90	0.00	30.302 
14:15	67.9	67.9	67.9	34	38.5	2	4	112	0.00	30.299 
14:20	67.9	67.9	67.9	33	37.7	2	5	112	0.00	30.299 
14:25	67.8	67.8	67.8	34	38.4	1	4	90	0.00	30.299 
14:30	67.8	67.8	67.8	32	36.9	2	5	90	0.00	30.295 
14:35	67.9	67.9	67.9	32	36.9	2	5	90	0.00	30.295 
14:40	67.9	67.9	67.9	30	35.3	2	6	90	0.00	30.295 
14:45	67.8	67.8	67.8	30	35.2	2	4	112	0.00	30.290 
14:50	67.9	67.9	67.9	29	34.5	1	4	112	0.00	30.290 
14:55	67.9	67.9	67.9	29	34.5	1	3	112	0.00	30.290 
15:00	67.9	67.9	67.9	29	34.5	1	5	112	0.00	30.285 
15:05	67.9	67.9	67.9	28	33.6	1	4	90	0.00	30.285 
15:10	67.9	67.9	67.9	28	33.6	1	4	68	0.00	30.285 
15:15	67.9	67.9	67.9	28	33.6	2	5	112	0.00	30.286 
15:20	67.8	67.8	67.8	28	33.5	2	5	90	0.00	30.286 
15:25	67.8	67.8	67.8	27	32.6	2	5	112	0.00	30.286 
15:30	67.8	67.8	67.8	28	33.5	2	4	90	0.00	30.285 
15:35	67.8	67.8	67.8	28	33.5	1	4	112	0.00	30.285 
15:40	67.6	67.6	67.6	28	33.3	1	4	112	0.00	30.285 
15:45	67.4	67.4	67.4	28	33.2	2	4	90	0.00	30.283 
15:50	67.3	67.3	67.3	28	33.1	2	4	112	0.00	30.283 
15:55	67.1	67.1	67.1	28	32.9	2	5	112	0.00	30.283 
16:00	66.9	66.9	66.9	28	32.7	2	5	112	0.00	30.278 
16:05	66.8	66.8	66.8	29	33.5	2	4	90	0.00	30.278 
16:10	66.6	66.6	66.6	29	33.3	1	3	90	0.00	30.278 
16:15	66.6	66.6	66.6	28	32.5	2	4	90	0.00	30.281 
16:20	66.4	66.4	66.4	28	32.3	2	3	90	0.00	30.281 
16:25	66.3	66.3	66.3	29	33.1	2	4	112	0.00	30.281 
16:30	66.1	66.1	66.1	29	32.9	2	5	112	0.00	30.280 
16:35	66.1	66.1	66.1	30	33.8	1	3	112	0.00	30.280 
16:40	65.8	65.8	65.8	31	34.3	1	5	112	0.00	30.280 
16:45	65.6	65.6	65.6	31	34.1	1	2	90	0.00	30.278 
16:50	65.2	65.2	65.2	31	33.8	1	3	90	0.00	30.278 
16:55	65.0	65.0	65.0	32	34.4	1	3	90	0.00	30.278 
17:00	64.5	64.5	64.5	32	34.0	1	4	90	0.00	30.276 
17:05	64.2	64.2	64.2	33	34.5	0	2	90	0.00	30.276 
17:10	63.7	63.7	63.7	34	34.8	0	2	90	0.00	30.276 
17:15	63.1	63.1	63.1	34	34.3	0	1	90	0.00	30.277 
17:20	62.6	62.6	62.6	35	34.6	0	2	90	0.00	30.277 
17:25	62.0	62.0	62.0	35	34.0	0	1	90	0.00	30.277 
17:30	61.3	61.3	61.3	36	34.1	0	0	---	0.00	30.277 
17:35	60.7	60.7	60.7	37	34.3	0	0	---	0.00	30.277 
17:40	59.9	59.9	59.9	37	33.6	0	0	---	0.00	30.277 
17:45	59.2	59.2	59.2	38	33.6	0	0	---	0.00	30.282 
17:50	58.4	58.4	58.4	39	33.5	0	0	---	0.00	30.282 
17:55	57.5	57.5	57.5	41	34.0	0	0	---	0.00	30.282 
18:00	56.9	56.9	56.9	42	34.0	0	0	---	0.00	30.283 
18:05	56.0	56.0	56.0	44	34.4	0	0	---	0.00	30.283 
18:10	55.4	55.4	55.4	44	33.9	0	0	---	0.00	30.283 
18:15	54.7	54.7	54.7	46	34.3	0	0	---	0.00	30.285 
18:20	53.9	53.9	53.9	46	33.6	0	0	---	0.00	30.285 
18:25	53.3	53.3	53.3	47	33.6	0	0	---	0.00	30.285 
18:30	52.8	52.8	52.8	48	33.7	0	0	---	0.00	30.287 
18:35	52.2	52.2	52.2	50	34.1	0	0	---	0.00	30.287 
18:40	51.7	51.7	51.7	50	33.7	0	0	---	0.00	30.287 
18:45	51.3	51.3	51.3	52	34.3	0	0	---	0.00	30.286 
18:50	50.8	50.8	50.8	52	33.8	0	0	---	0.00	30.286 
18:55	50.4	50.4	50.4	53	33.9	0	0	---	0.00	30.286 
19:00	49.8	49.8	49.8	53	33.4	0	0	---	0.00	30.287 
19:05	49.4	49.4	49.4	54	33.5	0	0	---	0.00	30.287 
19:10	48.9	48.9	48.9	55	33.5	0	0	---	0.00	30.287 
19:15	48.3	48.3	48.3	56	33.3	0	0	---	0.00	30.286 
19:20	47.9	47.9	47.9	57	33.4	0	0	---	0.00	30.286 
19:25	47.4	47.4	47.4	58	33.4	0	0	---	0.00	30.286 
19:30	47.0	47.0	47.0	58	33.0	0	0	---	0.00	30.285 
19:35	46.5	46.5	46.5	58	32.5	0	0	---	0.00	30.285 
19:40	46.1	46.1	46.1	59	32.6	0	0	---	0.00	30.285 
19:45	45.8	45.8	45.8	60	32.7	0	0	---	0.00	30.287 
19:50	45.5	45.5	45.5	61	32.8	0	0	---	0.00	30.287 
19:55	45.4	45.4	45.4	62	33.2	0	0	---	0.00	30.287 
20:00	45.1	45.1	45.1	62	32.9	0	0	---	0.00	30.282 
20:05	44.8	44.8	44.8	63	33.0	0	0	---	0.00	30.282 
20:10	44.5	44.5	44.5	64	33.1	0	0	---	0.00	30.282 
20:15	44.2	44.2	44.2	65	33.2	0	0	---	0.00	30.272 
20:20	43.9	43.9	43.9	65	32.9	0	0	---	0.00	30.272 
20:25	43.8	43.8	43.8	66	33.2	0	0	---	0.00	30.272 
20:30	43.6	43.6	43.6	66	33.0	0	0	---	0.00	30.273 
20:35	43.3	43.3	43.3	66	32.7	0	0	---	0.00	30.273 
20:40	43.1	43.1	43.1	66	32.5	0	0	---	0.00	30.273 
20:45	42.8	42.8	42.8	67	32.6	0	0	---	0.00	30.273 
20:50	42.6	42.6	42.6	67	32.4	0	0	---	0.00	30.273 
20:55	42.3	42.3	42.3	67	32.1	0	0	---	0.00	30.273 
21:00	42.2	42.2	42.2	68	32.4	0	0	---	0.00	30.271 
21:05	42.1	42.1	42.1	68	32.3	0	0	---	0.00	30.271 
21:10	42.2	42.2	42.2	68	32.4	0	0	---	0.00	30.271 
21:15	42.5	42.5	42.5	67	32.3	0	0	---	0.00	30.266 
21:20	42.8	42.8	42.8	66	32.2	0	0	---	0.00	30.266 
21:25	43.1	43.1	43.1	65	32.1	0	0	---	0.00	30.266 
21:30	43.1	43.1	43.1	65	32.1	0	0	---	0.00	30.266 
21:35	43.1	43.1	43.1	64	31.8	0	0	---	0.00	30.266 
21:40	42.9	42.9	42.9	64	31.6	0	0	---	0.00	30.266 
21:45	42.8	42.8	42.8	64	31.5	0	0	---	0.00	30.265 
21:50	42.5	42.5	42.5	64	31.2	0	0	---	0.00	30.265 
21:55	42.3	42.3	42.3	65	31.4	0	0	---	0.00	30.265 
22:00	42.2	42.2	42.2	65	31.3	0	0	---	0.00	30.265 
22:05	42.1	42.1	42.1	66	31.6	0	0	---	0.00	30.265 
22:10	41.8	41.8	41.8	66	31.3	0	0	---	0.00	30.265 
22:15	41.6	41.6	41.6	67	31.5	0	0	---	0.00	30.257 
22:20	41.3	41.3	41.3	67	31.2	0	0	---	0.00	30.257 
22:25	40.9	40.9	40.9	68	31.2	0	0	---	0.00	30.257 
22:30	40.6	40.6	40.6	69	31.2	0	0	---	0.00	30.247 
22:35	40.5	40.5	40.5	69	31.1	0	0	---	0.00	30.247 
22:40	40.2	40.2	40.2	70	31.2	0	0	---	0.00	30.247 
22:45	40.1	40.1	40.1	70	31.1	0	0	---	0.00	30.245 
22:50	39.9	39.9	39.9	71	31.3	0	0	---	0.00	30.245 
22:55	39.9	39.9	39.9	73	32.0	0	0	---	0.00	30.245 
23:00	39.8	39.8	39.8	73	31.9	0	0	---	0.00	30.237 
23:05	39.6	39.6	39.6	74	32.0	0	0	---	0.00	30.237 
23:10	39.3	39.3	39.3	74	31.7	0	0	---	0.00	30.237 
23:15	39.2	39.2	39.2	75	32.0	0	0	---	0.00	30.231 
23:20	39.1	39.1	39.1	77	32.5	0	0	---	0.00	30.231 
23:25	39.1	39.1	39.1	77	32.5	0	0	---	0.00	30.231 
23:30	38.9	38.9	38.9	78	32.6	0	0	---	0.00	30.227 
23:35	38.9	38.9	38.9	79	33.0	0	0	---	0.00	30.227 
23:40	38.9	38.9	38.9	80	33.3	0	0	---	0.00	30.227 
23:45	39.1	39.1	39.1	81	33.8	0	0	---	0.00	30.225 
23:50	39.1	39.1	39.1	82	34.1	0	0	---	0.00	30.225 
23:55	39.2	39.2	39.2	82	34.2	0	0	---	0.00	30.225 

CoCoRaHS
IN-AL-39
A2 Web Hosting
Creative Commons License
GoDaddy
search engine by freefind advanced

loaded 2018-11-18 11:16:44 • last modified 2010-11-18 10:43:29
Privacy PolicyDisclaimer
• wx.awcolley.com is powered by PmWiki v.2002016 •
• all content (unless otherwise noted) © 2018 A W Colley